Costa Magica — IBQQ — position and weather

sailwx.info

Track history (hours):
 
Tides and Currents Weather Stations Pressure Air Temp Water Temp Dewpoint Dewpoint Depression Visibility Wind Speed Wind Dir Waves Ship Positions

Costa Magica

Last reported at 2017-Sep-20 00:30 UTC. Time now 2017-Sep-20 00:33 UTC.
Position N 42°57' E 009°40'.

Type: Ship. MMSI: 247113300.

Date/timePositionNaut miles runAvg speedWind from/ knotsBaromVisibWave heightAir tempDewpointWater temp
2017-Sep-20 00:30N 42°57' E 009°40'916.9
2017-Sep-19 23:57N 42°50' E 009°48'917.7
2017-Sep-19 23:25N 42°45' E 009°59'917.6
2017-Sep-19 22:56N 42°40' E 010°09'917.7
2017-Sep-19 22:27N 42°34' E 010°17'817.6
2017-Sep-19 22:00N 42°29' E 010°26'917.5
2017-Sep-19 21:30N 42°24' E 010°35'342 7.5
2017-Sep-17 23:51N 39°22' E 004°12'514.3
2017-Sep-17 23:29N 39°19' E 004°06'1514.4
2017-Sep-17 22:28N 39°11' E 003°50'714.7
2017-Sep-17 22:00N 39°08' E 003°42'714.5
2017-Sep-17 21:30N 39°05' E 003°34'714.7
2017-Sep-17 21:00N 39°01' E 003°26'714.6
2017-Sep-17 20:30N 38°57' E 003°18'714.5
2017-Sep-17 20:00N 38°53' E 003°10'714.5
2017-Sep-17 19:30N 38°49' E 003°02'714.3
2017-Sep-17 19:00N 38°46' E 002°54'714.2
2017-Sep-17 18:30N 38°42' E 002°46'714.5
2017-Sep-17 18:00N 38°38' E 002°39'814.3
2017-Sep-17 17:27N 38°34' E 002°30'614.4
2017-Sep-17 17:00N 38°31' E 002°23'914.6
2017-Sep-17 16:23N 38°26' E 002°13'13514.7
2017-Sep-17 07:15N 37°17' W 000°14'2314.9
2017-Sep-17 05:41N 37°06' W 000°39'314.7
2017-Sep-17 05:30N 37°04' W 000°41'714.5
2017-Sep-17 05:00N 37°01' W 000°49'171 7.0
2017-Sep-16 04:33N 36°38' W 004°21'44 5.2
2017-Sep-15 20:03N 36°02' W 004°53'114.0
2017-Sep-15 20:00N 36°02' W 004°54'814.2
2017-Sep-15 19:28N 36°03' W 005°03'714.7
2017-Sep-15 19:00N 36°03' W 005°12'815.7
2017-Sep-15 18:30N 36°05' W 005°21'4 7.9
2017-Sep-15 17:59N 36°09' W 005°22'0 0.0
2017-Sep-15 14:44N 36°09' W 005°22'0 0.0
2017-Sep-15 14:26N 36°09' W 005°22'0 0.0
2017-Sep-15 13:56N 36°09' W 005°22'0 0.0
2017-Sep-15 13:20N 36°09' W 005°22'0 0.0
2017-Sep-15 12:50N 36°09' W 005°22'0 0.0
2017-Sep-15 11:44N 36°09' W 005°22'0 0.2
2017-Sep-15 11:28N 36°09' W 005°22'4 8.1
2017-Sep-15 10:59N 36°05' W 005°21'511.2
2017-Sep-15 10:30N 35°60' W 005°22'816.4
2017-Sep-15 10:01N 35°57' W 005°31'2917.5
2017-Sep-15 08:23N 35°55' W 006°07'716.8
2017-Sep-15 07:59N 35°55' W 006°15'5118.6
2017-Sep-15 05:13N 36°08' W 007°16'519.7
2017-Sep-15 04:59N 36°09' W 007°22'1019.9
2017-Sep-15 04:30N 36°12' W 007°33'919.4
2017-Sep-15 04:01N 36°14' W 007°45'1019.4
2017-Sep-15 03:31N 36°17' W 007°56'1019.3
2017-Sep-15 03:01N 36°19' W 008°08'1019.3
2017-Sep-15 02:30N 36°21' W 008°20'1019.8
2017-Sep-15 02:00N 36°23' W 008°32'1019.9
2017-Sep-15 01:30N 36°25' W 008°44'1019.9
2017-Sep-15 01:00N 36°28' W 008°56'1020.5
2017-Sep-15 00:30N 36°31' W 009°08'1119.6
2017-Sep-14 23:55N 36°35' W 009°21'920.7
2017-Sep-14 23:30N 36°42' W 009°28'1120.1
2017-Sep-14 22:56N 36°52' W 009°34'1120.6
2017-Sep-14 22:23N 37°04' W 009°34'1121.2
2017-Sep-14 21:52N 37°15' W 009°33'720.4
2017-Sep-14 21:30N 37°22' W 009°32'1020.7
2017-Sep-14 21:01N 37°32' W 009°32'1020.4
2017-Sep-14 20:30N 37°42' W 009°31'1020.5
2017-Sep-14 20:00N 37°53' W 009°30'1020.7
2017-Sep-14 19:30N 38°03' W 009°29'1020.7
2017-Sep-14 19:00N 38°13' W 009°28'1020.3
2017-Sep-14 18:31N 38°23' W 009°27'918.4
2017-Sep-14 18:01N 38°33' W 009°26'816.2
2017-Sep-14 17:31N 38°39' W 009°20'713.0
2017-Sep-14 16:59N 38°41' W 009°12'4 8.3
2017-Sep-14 16:30N 38°43' W 009°07'0 0.2
2017-Sep-14 15:57N 38°43' W 009°07'0 0.0
2017-Sep-14 15:30N 38°43' W 009°07'0 0.0
2017-Sep-14 15:00N 38°43' W 009°07'0 0.0
2017-Sep-14 14:30N 38°43' W 009°07'0 0.0
2017-Sep-14 14:00N 38°43' W 009°07'0 0.0
2017-Sep-14 13:30N 38°43' W 009°07'0 0.0
2017-Sep-14 13:00N 38°43' W 009°07'0 0.0
2017-Sep-14 12:30N 38°43' W 009°07'0 0.0
2017-Sep-14 12:00N 38°43' W 009°07'0 0.0
2017-Sep-14 11:30N 38°43' W 009°07'0 0.0
2017-Sep-14 11:00N 38°43' W 009°07'0 0.0
2017-Sep-14 10:30N 38°43' W 009°07'0 0.0
2017-Sep-14 10:00N 38°43' W 009°07'0 0.0
2017-Sep-14 09:30N 38°43' W 009°07'0 0.0
2017-Sep-14 09:00N 38°43' W 009°07'0 0.0
2017-Sep-14 08:30N 38°43' W 009°07'0 0.0
2017-Sep-14 08:00N 38°43' W 009°07'0 0.0
2017-Sep-14 07:30N 38°43' W 009°07'0 0.0
2017-Sep-14 07:00N 38°43' W 009°07'0 0.0
2017-Sep-14 06:30N 38°43' W 009°07'2 4.4
2017-Sep-14 06:00N 38°42' W 009°10'510.9
2017-Sep-14 05:31N 38°41' W 009°16'714.5
2017-Sep-14 05:00N 38°37' W 009°24'714.8
2017-Sep-14 04:30N 38°35' W 009°33'611.1
2017-Sep-14 04:00N 38°35' W 009°40'713.6
2017-Sep-14 03:30N 38°34' W 009°49'714.4
2017-Sep-14 03:00N 38°34' W 009°58'713.3
2017-Sep-14 02:30N 38°38' W 010°04'815.2
2017-Sep-14 02:00N 38°45' W 010°06'815.0
2017-Sep-14 01:30N 38°53' W 010°05'815.3
2017-Sep-14 01:00N 39°01' W 010°04'815.2
2017-Sep-14 00:30N 39°08' W 010°03'815.5
2017-Sep-14 00:00N 39°16' W 010°03'917.5
2017-Sep-13 23:30N 39°25' W 010°02'917.3
2017-Sep-13 23:00N 39°33' W 010°00'917.6
2017-Sep-13 22:30N 39°41' W 009°54'917.5
2017-Sep-13 22:00N 39°48' W 009°48'917.6
2017-Sep-13 21:30N 39°56' W 009°43'  
2017-Sep-11 07:17N 49°05' W 005°29'5014.4
2017-Sep-11 03:47N 49°26' W 004°20'717.2
2017-Sep-11 03:24N 49°30' W 004°11'718.0
2017-Sep-11 03:00N 49°34' W 004°02'918.6
2017-Sep-11 02:30N 49°39' W 003°50'918.6
2017-Sep-11 02:00N 49°44' W 003°37'918.7
2017-Sep-11 01:30N 49°48' W 003°24'918.3
2017-Sep-11 01:00N 49°52' W 003°12'917.7
2017-Sep-11 00:30N 49°55' W 002°59'816.9
2017-Sep-11 00:00N 49°59' W 002°47'816.3
2017-Sep-10 23:30N 50°01' W 002°35'815.6
2017-Sep-10 22:59N 50°03' W 002°23'714.8
2017-Sep-10 22:31N 50°04' W 002°12'714.6
2017-Sep-10 22:00N 50°03' W 002°00'714.7
2017-Sep-10 21:30N 50°00' W 001°50'714.6
2017-Sep-10 21:01N 49°58' W 001°39'815.5
2017-Sep-10 20:31N 49°57' W 001°27'816.3
2017-Sep-10 20:00N 49°56' W 001°15'815.8
2017-Sep-10 19:30N 49°54' W 001°03'917.2
2017-Sep-10 19:00N 49°50' W 000°52'918.5
2017-Sep-10 18:30N 49°44' W 000°40'919.2
2017-Sep-10 18:00N 49°39' W 000°28'919.1
2017-Sep-10 17:30N 49°34' W 000°16'815.1
2017-Sep-10 17:00N 49°31' W 000°05'713.4
2017-Sep-10 16:30N 49°29' E 000°05'1 1.5
2017-Sep-10 16:00N 49°29' E 000°06'0 0.0
2017-Sep-10 15:30N 49°29' E 000°06'0 0.0
2017-Sep-10 15:00N 49°29' E 000°06'0 0.0
2017-Sep-10 14:00N 49°29' E 000°06'0 0.0
2017-Sep-10 13:30N 49°29' E 000°06'0 0.0
2017-Sep-10 13:00N 49°29' E 000°06'0 0.0
2017-Sep-10 12:30N 49°29' E 000°06'0 0.0
2017-Sep-10 12:00N 49°29' E 000°06'0 0.0
2017-Sep-10 11:30N 49°29' E 000°06'0 0.0
2017-Sep-10 11:00N 49°29' E 000°06'0 0.0
2017-Sep-10 10:30N 49°29' E 000°06'0 0.0
2017-Sep-10 10:00N 49°29' E 000°06'0 0.0
2017-Sep-10 09:30N 49°29' E 000°06'0 0.0
2017-Sep-10 09:00N 49°29' E 000°06'0 0.0
2017-Sep-10 08:30N 49°29' E 000°06'0 0.0
2017-Sep-10 08:00N 49°29' E 000°06'0 0.0
2017-Sep-10 07:30N 49°29' E 000°06'0 0.0
2017-Sep-10 07:00N 49°29' E 000°06'0 0.0
2017-Sep-10 06:30N 49°29' E 000°06'0 0.0
2017-Sep-10 06:00N 49°29' E 000°06'0 0.0
2017-Sep-10 05:30N 49°29' E 000°06'0 0.0
2017-Sep-10 05:00N 49°29' E 000°06'0 0.1
2017-Sep-10 04:30N 49°29' E 000°06'0 0.9
2017-Sep-10 04:00N 49°29' E 000°07'5 9.6
2017-Sep-10 03:30N 49°30' W 000°00'510.6
2017-Sep-10 03:00N 49°33' W 000°08'4 8.8
2017-Sep-10 02:30N 49°37' W 000°06'815.6
2017-Sep-10 02:00N 49°45' W 000°04'815.8
2017-Sep-10 01:30N 49°52' W 000°03'816.6
2017-Sep-10 01:00N 50°01' W 000°04'  
Track history (hours):
 
Tides and Currents Weather Stations Pressure Air Temp Water Temp Dewpoint Dewpoint Depression Visibility Wind Speed Wind Dir Waves Ship Positions

Costa Magica

Last reported at 2017-Sep-20 00:30 UTC. Time now 2017-Sep-20 00:33 UTC.
Position N 42°57' E 009°40'.

Type: Ship. MMSI: 247113300.

Date/timePositionNaut miles runAvg speedWind from/ knotsBaromVisibWave heightAir tempDewpointWater temp
2017-Sep-20 00:30N 42°57' E 009°40'916.9
2017-Sep-19 23:57N 42°50' E 009°48'917.7
2017-Sep-19 23:25N 42°45' E 009°59'917.6
2017-Sep-19 22:56N 42°40' E 010°09'917.7
2017-Sep-19 22:27N 42°34' E 010°17'817.6
2017-Sep-19 22:00N 42°29' E 010°26'917.5
2017-Sep-19 21:30N 42°24' E 010°35'342 7.5
2017-Sep-17 23:51N 39°22' E 004°12'514.3
2017-Sep-17 23:29N 39°19' E 004°06'1514.4
2017-Sep-17 22:28N 39°11' E 003°50'714.7
2017-Sep-17 22:00N 39°08' E 003°42'714.5
2017-Sep-17 21:30N 39°05' E 003°34'714.7
2017-Sep-17 21:00N 39°01' E 003°26'714.6
2017-Sep-17 20:30N 38°57' E 003°18'714.5
2017-Sep-17 20:00N 38°53' E 003°10'714.5
2017-Sep-17 19:30N 38°49' E 003°02'714.3
2017-Sep-17 19:00N 38°46' E 002°54'714.2
2017-Sep-17 18:30N 38°42' E 002°46'714.5
2017-Sep-17 18:00N 38°38' E 002°39'814.3
2017-Sep-17 17:27N 38°34' E 002°30'614.4
2017-Sep-17 17:00N 38°31' E 002°23'914.6
2017-Sep-17 16:23N 38°26' E 002°13'13514.7
2017-Sep-17 07:15N 37°17' W 000°14'2314.9
2017-Sep-17 05:41N 37°06' W 000°39'314.7
2017-Sep-17 05:30N 37°04' W 000°41'714.5
2017-Sep-17 05:00N 37°01' W 000°49'171 7.0
2017-Sep-16 04:33N 36°38' W 004°21'44 5.2
2017-Sep-15 20:03N 36°02' W 004°53'114.0
2017-Sep-15 20:00N 36°02' W 004°54'814.2
2017-Sep-15 19:28N 36°03' W 005°03'714.7
2017-Sep-15 19:00N 36°03' W 005°12'815.7
2017-Sep-15 18:30N 36°05' W 005°21'4 7.9
2017-Sep-15 17:59N 36°09' W 005°22'0 0.0
2017-Sep-15 14:44N 36°09' W 005°22'0 0.0
2017-Sep-15 14:26N 36°09' W 005°22'0 0.0
2017-Sep-15 13:56N 36°09' W 005°22'0 0.0
2017-Sep-15 13:20N 36°09' W 005°22'0 0.0
2017-Sep-15 12:50N 36°09' W 005°22'0 0.0
2017-Sep-15 11:44N 36°09' W 005°22'0 0.2
2017-Sep-15 11:28N 36°09' W 005°22'4 8.1
2017-Sep-15 10:59N 36°05' W 005°21'511.2
2017-Sep-15 10:30N 35°60' W 005°22'816.4
2017-Sep-15 10:01N 35°57' W 005°31'2917.5
2017-Sep-15 08:23N 35°55' W 006°07'716.8
2017-Sep-15 07:59N 35°55' W 006°15'5118.6
2017-Sep-15 05:13N 36°08' W 007°16'519.7
2017-Sep-15 04:59N 36°09' W 007°22'1019.9
2017-Sep-15 04:30N 36°12' W 007°33'919.4
2017-Sep-15 04:01N 36°14' W 007°45'1019.4
2017-Sep-15 03:31N 36°17' W 007°56'1019.3
2017-Sep-15 03:01N 36°19' W 008°08'1019.3
2017-Sep-15 02:30N 36°21' W 008°20'1019.8
2017-Sep-15 02:00N 36°23' W 008°32'1019.9
2017-Sep-15 01:30N 36°25' W 008°44'1019.9
2017-Sep-15 01:00N 36°28' W 008°56'1020.5
2017-Sep-15 00:30N 36°31' W 009°08'1119.6
2017-Sep-14 23:55N 36°35' W 009°21'920.7
2017-Sep-14 23:30N 36°42' W 009°28'1120.1
2017-Sep-14 22:56N 36°52' W 009°34'1120.6
2017-Sep-14 22:23N 37°04' W 009°34'1121.2
2017-Sep-14 21:52N 37°15' W 009°33'720.4
2017-Sep-14 21:30N 37°22' W 009°32'1020.7
2017-Sep-14 21:01N 37°32' W 009°32'1020.4
2017-Sep-14 20:30N 37°42' W 009°31'1020.5
2017-Sep-14 20:00N 37°53' W 009°30'1020.7
2017-Sep-14 19:30N 38°03' W 009°29'1020.7
2017-Sep-14 19:00N 38°13' W 009°28'1020.3
2017-Sep-14 18:31N 38°23' W 009°27'918.4
2017-Sep-14 18:01N 38°33' W 009°26'816.2
2017-Sep-14 17:31N 38°39' W 009°20'713.0
2017-Sep-14 16:59N 38°41' W 009°12'4 8.3
2017-Sep-14 16:30N 38°43' W 009°07'0 0.2
2017-Sep-14 15:57N 38°43' W 009°07'0 0.0
2017-Sep-14 15:30N 38°43' W 009°07'0 0.0
2017-Sep-14 15:00N 38°43' W 009°07'0 0.0
2017-Sep-14 14:30N 38°43' W 009°07'0 0.0
2017-Sep-14 14:00N 38°43' W 009°07'0 0.0
2017-Sep-14 13:30N 38°43' W 009°07'0 0.0
2017-Sep-14 13:00N 38°43' W 009°07'0 0.0
2017-Sep-14 12:30N 38°43' W 009°07'0 0.0
2017-Sep-14 12:00N 38°43' W 009°07'0 0.0
2017-Sep-14 11:30N 38°43' W 009°07'0 0.0
2017-Sep-14 11:00N 38°43' W 009°07'0 0.0
2017-Sep-14 10:30N 38°43' W 009°07'0 0.0
2017-Sep-14 10:00N 38°43' W 009°07'0 0.0
2017-Sep-14 09:30N 38°43' W 009°07'0 0.0
2017-Sep-14 09:00N 38°43' W 009°07'0 0.0
2017-Sep-14 08:30N 38°43' W 009°07'0 0.0
2017-Sep-14 08:00N 38°43' W 009°07'0 0.0
2017-Sep-14 07:30N 38°43' W 009°07'0 0.0
2017-Sep-14 07:00N 38°43' W 009°07'0 0.0
2017-Sep-14 06:30N 38°43' W 009°07'2 4.4
2017-Sep-14 06:00N 38°42' W 009°10'510.9
2017-Sep-14 05:31N 38°41' W 009°16'714.5
2017-Sep-14 05:00N 38°37' W 009°24'714.8
2017-Sep-14 04:30N 38°35' W 009°33'611.1
2017-Sep-14 04:00N 38°35' W 009°40'713.6
2017-Sep-14 03:30N 38°34' W 009°49'714.4
2017-Sep-14 03:00N 38°34' W 009°58'713.3
2017-Sep-14 02:30N 38°38' W 010°04'815.2
2017-Sep-14 02:00N 38°45' W 010°06'815.0
2017-Sep-14 01:30N 38°53' W 010°05'815.3
2017-Sep-14 01:00N 39°01' W 010°04'815.2
2017-Sep-14 00:30N 39°08' W 010°03'815.5
2017-Sep-14 00:00N 39°16' W 010°03'917.5
2017-Sep-13 23:30N 39°25' W 010°02'917.3
2017-Sep-13 23:00N 39°33' W 010°00'917.6
2017-Sep-13 22:30N 39°41' W 009°54'917.5
2017-Sep-13 22:00N 39°48' W 009°48'917.6
2017-Sep-13 21:30N 39°56' W 009°43'  
2017-Sep-11 07:17N 49°05' W 005°29'5014.4
2017-Sep-11 03:47N 49°26' W 004°20'717.2
2017-Sep-11 03:24N 49°30' W 004°11'718.0
2017-Sep-11 03:00N 49°34' W 004°02'918.6
2017-Sep-11 02:30N 49°39' W 003°50'918.6
2017-Sep-11 02:00N 49°44' W 003°37'918.7
2017-Sep-11 01:30N 49°48' W 003°24'918.3
2017-Sep-11 01:00N 49°52' W 003°12'917.7
2017-Sep-11 00:30N 49°55' W 002°59'816.9
2017-Sep-11 00:00N 49°59' W 002°47'816.3
2017-Sep-10 23:30N 50°01' W 002°35'815.6
2017-Sep-10 22:59N 50°03' W 002°23'714.8
2017-Sep-10 22:31N 50°04' W 002°12'714.6
2017-Sep-10 22:00N 50°03' W 002°00'714.7
2017-Sep-10 21:30N 50°00' W 001°50'714.6
2017-Sep-10 21:01N 49°58' W 001°39'815.5
2017-Sep-10 20:31N 49°57' W 001°27'816.3
2017-Sep-10 20:00N 49°56' W 001°15'815.8
2017-Sep-10 19:30N 49°54' W 001°03'917.2
2017-Sep-10 19:00N 49°50' W 000°52'918.5
2017-Sep-10 18:30N 49°44' W 000°40'919.2
2017-Sep-10 18:00N 49°39' W 000°28'919.1
2017-Sep-10 17:30N 49°34' W 000°16'815.1
2017-Sep-10 17:00N 49°31' W 000°05'713.4
2017-Sep-10 16:30N 49°29' E 000°05'1 1.5
2017-Sep-10 16:00N 49°29' E 000°06'0 0.0
2017-Sep-10 15:30N 49°29' E 000°06'0 0.0
2017-Sep-10 15:00N 49°29' E 000°06'0 0.0
2017-Sep-10 14:00N 49°29' E 000°06'0 0.0
2017-Sep-10 13:30N 49°29' E 000°06'0 0.0
2017-Sep-10 13:00N 49°29' E 000°06'0 0.0
2017-Sep-10 12:30N 49°29' E 000°06'0 0.0
2017-Sep-10 12:00N 49°29' E 000°06'0 0.0
2017-Sep-10 11:30N 49°29' E 000°06'0 0.0
2017-Sep-10 11:00N 49°29' E 000°06'0 0.0
2017-Sep-10 10:30N 49°29' E 000°06'0 0.0
2017-Sep-10 10:00N 49°29' E 000°06'0 0.0
2017-Sep-10 09:30N 49°29' E 000°06'0 0.0
2017-Sep-10 09:00N 49°29' E 000°06'0 0.0
2017-Sep-10 08:30N 49°29' E 000°06'0 0.0
2017-Sep-10 08:00N 49°29' E 000°06'0 0.0
2017-Sep-10 07:30N 49°29' E 000°06'0 0.0
2017-Sep-10 07:00N 49°29' E 000°06'0 0.0
2017-Sep-10 06:30N 49°29' E 000°06'0 0.0
2017-Sep-10 06:00N 49°29' E 000°06'0 0.0
2017-Sep-10 05:30N 49°29' E 000°06'0 0.0
2017-Sep-10 05:00N 49°29' E 000°06'0 0.1
2017-Sep-10 04:30N 49°29' E 000°06'0 0.9
2017-Sep-10 04:00N 49°29' E 000°07'5 9.6
2017-Sep-10 03:30N 49°30' W 000°00'510.6
2017-Sep-10 03:00N 49°33' W 000°08'4 8.8
2017-Sep-10 02:30N 49°37' W 000°06'815.6
2017-Sep-10 02:00N 49°45' W 000°04'815.8
2017-Sep-10 01:30N 49°52' W 000°03'816.6
2017-Sep-10 01:00N 50°01' W 000°04'  

Dump ship's entire track history